Time;durP1;ratioP1;P1;durP2;ratioP2;P2;SDS_P1;SDS_P2;PMS_P1;PMS_P2;Temp;Humidity;BMP_temperature;BMP_pressure;BME280_temperature;BME280_humidity;BME280_pressure;Samples;Min_cycle;Max_cycle;Signal;HPM_P1;HPM_P2
2021/01/04 00:04:14;;;;;;;35.53;16.20;;;-0.10;99.90;;;;;;8292121;28;20030;-73
2021/01/04 00:08:23;;;;;;;34.67;16.30;;;-0.20;99.90;;;;;;8274949;28;20022;-73
2021/01/04 00:12:44;;;;;;;29.73;16.05;;;0.00;99.90;;;;;;8274276;28;20034;-73
2021/01/04 00:16:55;;;;;;;36.28;16.48;;;0.00;99.90;;;;;;8274213;28;20069;-73
2021/01/04 00:21:10;;;;;;;38.50;17.15;;;0.30;99.90;;;;;;8274010;28;20036;-73
2021/01/04 00:25:37;;;;;;;37.92;17.38;;;0.00;99.90;;;;;;8291221;28;20157;-74
2021/01/04 00:29:38;;;;;;;35.17;17.75;;;-0.10;99.90;;;;;;8285566;28;20034;-73
2021/01/04 00:33:42;;;;;;;38.78;18.08;;;0.00;99.90;;;;;;8274100;28;20076;-74
2021/01/04 00:38:19;;;;;;;36.47;16.52;;;0.00;99.90;;;;;;8278869;28;20091;-73
2021/01/04 00:42:36;;;;;;;34.65;16.15;;;0.20;99.90;;;;;;8297489;28;20026;-73
2021/01/04 00:46:42;;;;;;;36.38;17.17;;;0.20;99.90;;;;;;8280412;28;20622;-73
2021/01/04 00:50:51;;;;;;;30.23;15.23;;;0.50;99.90;;;;;;8280103;28;20022;-74
2021/01/04 00:54:51;;;;;;;32.42;15.60;;;0.60;99.90;;;;;;8297566;28;20101;-73
2021/01/04 00:58:54;;;;;;;38.55;18.27;;;0.40;99.90;;;;;;8279958;28;20371;-73
2021/01/04 01:03:40;;;;;;;36.78;17.15;;;0.20;99.90;;;;;;8279554;28;20030;-74
2021/01/04 01:08:16;;;;;;;33.28;15.70;;;0.10;99.90;;;;;;8297268;28;20530;-74
2021/01/04 01:12:40;;;;;;;36.33;15.88;;;0.00;99.90;;;;;;8296844;28;20026;-73
2021/01/04 01:16:59;;;;;;;35.35;17.25;;;0.10;99.90;;;;;;8296854;28;20033;-73
2021/01/04 01:21:03;;;;;;;35.40;16.48;;;0.00;99.90;;;;;;8296881;28;20650;-73
2021/01/04 01:25:08;;;;;;;38.53;17.25;;;-0.10;99.90;;;;;;8296408;28;20032;-74
2021/01/04 01:29:31;;;;;;;35.10;16.92;;;0.00;99.90;;;;;;8278779;28;20022;-73
2021/01/04 01:34:07;;;;;;;36.20;17.15;;;0.20;99.90;;;;;;8275803;28;20038;-73
2021/01/04 01:38:27;;;;;;;37.60;17.95;;;0.20;99.90;;;;;;8296341;28;20048;-73
2021/01/04 01:43:07;;;;;;;25.42;12.15;;;0.20;99.90;;;;;;8295857;28;20034;-73
2021/01/04 01:47:13;;;;;;;38.55;17.20;;;0.20;99.90;;;;;;8295730;28;20461;-73
2021/01/04 01:51:57;;;;;;;38.00;17.50;;;0.30;99.90;;;;;;8278723;28;20033;-74
2021/01/04 01:56:13;;;;;;;38.53;18.05;;;0.40;99.90;;;;;;8247430;28;20038;-73
2021/01/04 02:00:40;;;;;;;36.83;18.40;;;0.30;99.90;;;;;;8295498;28;20022;-73
2021/01/04 02:04:57;;;;;;;35.25;17.10;;;0.40;99.90;;;;;;8295424;28;20061;-73
2021/01/04 02:09:18;;;;;;;35.72;16.70;;;0.40;99.90;;;;;;8295069;28;20084;-74
2021/01/04 02:13:31;;;;;;;39.80;17.48;;;0.60;99.90;;;;;;8295117;28;20030;-73
2021/01/04 02:17:50;;;;;;;32.72;16.35;;;0.40;99.90;;;;;;8277581;28;20668;-74
2021/01/04 02:22:21;;;;;;;33.20;15.27;;;0.40;99.90;;;;;;8277180;28;20084;-73
2021/01/04 02:26:25;;;;;;;35.45;17.10;;;0.50;99.90;;;;;;8277206;28;20022;-74
2021/01/04 02:30:26;;;;;;;36.25;16.30;;;0.30;99.90;;;;;;8294298;28;20523;-73
2021/01/04 02:34:43;;;;;;;33.30;17.35;;;0.30;99.90;;;;;;8277039;28;20040;-73
2021/01/04 02:38:54;;;;;;;32.25;17.08;;;0.30;99.90;;;;;;8276455;28;20022;-73
2021/01/04 02:42:54;;;;;;;37.95;17.85;;;0.20;99.90;;;;;;8293675;28;20029;-73
2021/01/04 02:47:37;;;;;;;34.53;16.45;;;0.20;99.90;;;;;;8294233;28;20726;-74
2021/01/04 02:51:43;;;;;;;36.03;15.98;;;0.30;99.90;;;;;;8269369;28;20061;-74
2021/01/04 02:55:55;;;;;;;35.13;15.77;;;0.30;99.90;;;;;;8293740;28;20037;-73
2021/01/04 02:59:59;;;;;;;31.00;15.88;;;0.10;99.90;;;;;;8292984;28;20026;-73
2021/01/04 03:04:00;;;;;;;32.92;16.00;;;0.20;99.90;;;;;;8275900;28;20161;-73
2021/01/04 03:08:02;;;;;;;32.38;15.75;;;0.20;99.90;;;;;;8293573;28;20441;-73
2021/01/04 03:12:08;;;;;;;35.13;16.90;;;0.20;99.90;;;;;;8293253;28;20068;-73
2021/01/04 03:16:28;;;;;;;34.55;16.02;;;0.30;99.90;;;;;;8293253;28;20030;-73
2021/01/04 03:20:29;;;;;;;36.22;16.80;;;0.50;99.90;;;;;;8293216;28;20026;-74
2021/01/04 03:24:30;;;;;;;34.97;16.05;;;0.60;99.90;;;;;;8275261;28;20037;-73
2021/01/04 03:28:32;;;;;;;31.08;15.63;;;0.60;99.90;;;;;;8292916;28;20057;-73
2021/01/04 03:32:32;;;;;;;32.45;15.60;;;0.60;99.90;;;;;;8292760;28;20542;-73
2021/01/04 03:36:33;;;;;;;34.03;15.57;;;0.30;99.90;;;;;;8275203;28;20030;-74
2021/01/04 03:40:33;;;;;;;35.72;16.75;;;0.20;99.90;;;;;;8292477;28;20430;-74
2021/01/04 03:44:34;;;;;;;33.55;15.65;;;0.30;99.90;;;;;;8291998;28;20480;-73
2021/01/04 03:48:37;;;;;;;38.15;17.05;;;0.10;99.90;;;;;;8292481;28;20427;-74
2021/01/04 03:52:38;;;;;;;37.08;17.35;;;0.20;99.90;;;;;;8274758;28;20484;-73
2021/01/04 03:56:38;;;;;;;38.97;17.63;;;0.20;99.90;;;;;;8292077;28;20037;-73
2021/01/04 04:00:39;;;;;;;32.58;15.38;;;0.50;99.90;;;;;;8292175;28;20030;-73
2021/01/04 04:04:40;;;;;;;36.25;16.88;;;0.40;99.90;;;;;;8292014;28;20048;-74
2021/01/04 04:08:42;;;;;;;36.08;16.80;;;0.20;99.90;;;;;;8291942;28;20404;-73
2021/01/04 04:12:42;;;;;;;38.05;16.75;;;0.30;99.90;;;;;;8274480;28;20554;-74
2021/01/04 04:16:43;;;;;;;32.78;16.77;;;0.30;99.90;;;;;;8291870;28;20033;-74
2021/01/04 04:20:43;;;;;;;35.42;16.75;;;0.20;99.90;;;;;;8274263;28;20671;-74
2021/01/04 04:24:45;;;;;;;37.13;16.77;;;0.30;99.90;;;;;;8274033;28;20025;-74
2021/01/04 04:28:46;;;;;;;34.25;16.20;;;0.30;99.90;;;;;;8273845;28;20031;-73
2021/01/04 04:32:58;;;;;;;36.72;17.05;;;0.40;99.90;;;;;;8274272;28;20467;-73
2021/01/04 04:36:59;;;;;;;33.00;16.38;;;0.40;99.90;;;;;;8291780;28;20396;-73
2021/01/04 04:41:00;;;;;;;37.33;16.73;;;0.30;99.90;;;;;;8273711;28;20030;-73
2021/01/04 04:45:06;;;;;;;35.72;16.70;;;0.30;99.90;;;;;;8291055;28;20033;-74
2021/01/04 04:49:20;;;;;;;34.47;15.43;;;0.40;99.90;;;;;;8291147;28;20037;-73
2021/01/04 04:53:58;;;;;;;36.60;16.30;;;0.50;99.90;;;;;;8291343;28;20161;-73
2021/01/04 04:58:07;;;;;;;36.08;16.77;;;0.60;99.90;;;;;;8291409;28;20033;-73
2021/01/04 05:02:30;;;;;;;39.38;18.13;;;0.40;99.90;;;;;;8291193;28;20083;-73
2021/01/04 05:06:43;;;;;;;36.38;17.00;;;0.20;99.90;;;;;;8291145;28;20519;-73
2021/01/04 05:10:48;;;;;;;37.25;17.05;;;0.50;99.90;;;;;;8290982;28;20467;-73
2021/01/04 05:14:57;;;;;;;31.10;15.55;;;0.40;99.90;;;;;;8290929;28;20045;-73
2021/01/04 05:19:22;;;;;;;31.75;15.68;;;0.20;99.90;;;;;;8290987;28;20034;-73
2021/01/04 05:23:40;;;;;;;31.52;14.90;;;0.60;99.90;;;;;;8294623;28;20026;-73
2021/01/04 05:28:18;;;;;;;29.77;15.30;;;0.40;99.90;;;;;;8296871;28;20022;-74
2021/01/04 05:32:50;;;;;;;32.63;15.55;;;0.30;99.90;;;;;;8278873;28;20104;-73
2021/01/04 05:37:03;;;;;;;29.75;13.77;;;0.30;99.90;;;;;;8296552;28;20097;-73
2021/01/04 05:41:22;;;;;;;29.98;14.85;;;0.20;99.90;;;;;;8277492;28;20116;-73
2021/01/04 05:45:46;;;;;;;28.40;14.50;;;0.40;99.90;;;;;;8293269;28;20052;-73
2021/01/04 05:49:55;;;;;;;29.98;14.77;;;0.30;99.90;;;;;;8295914;28;20030;-73
2021/01/04 05:53:55;;;;;;;32.23;13.37;;;0.30;99.90;;;;;;8295907;28;20022;-73
2021/01/04 05:57:57;;;;;;;31.08;14.52;;;0.30;99.90;;;;;;8278229;28;20048;-73
2021/01/04 06:02:06;;;;;;;27.55;14.48;;;0.50;99.90;;;;;;8295464;28;20022;-74
2021/01/04 06:06:21;;;;;;;30.88;14.40;;;0.50;99.90;;;;;;8295118;28;20037;-73
2021/01/04 06:10:34;;;;;;;32.33;13.90;;;0.40;99.90;;;;;;8295337;28;20022;-73
2021/01/04 06:14:36;;;;;;;26.83;14.02;;;0.40;99.90;;;;;;8295321;28;20084;-74
2021/01/04 06:18:45;;;;;;;30.27;14.23;;;0.30;99.90;;;;;;8293006;28;20034;-73
2021/01/04 06:22:48;;;;;;;26.00;13.27;;;0.40;99.90;;;;;;8293396;28;20041;-73
2021/01/04 06:26:57;;;;;;;29.95;15.20;;;0.40;99.90;;;;;;8293669;28;20026;-73
2021/01/04 06:31:02;;;;;;;28.73;15.23;;;0.30;99.90;;;;;;8292141;28;20022;-73
2021/01/04 06:35:19;;;;;;;29.05;14.15;;;0.30;99.90;;;;;;8292662;28;20400;-73
2021/01/04 06:39:33;;;;;;;29.13;14.90;;;0.30;99.90;;;;;;8276524;28;20026;-73
2021/01/04 06:43:36;;;;;;;25.08;14.00;;;0.40;99.90;;;;;;8293359;28;20495;-73
2021/01/04 06:48:06;;;;;;;27.00;12.88;;;0.30;99.90;;;;;;8292830;28;20014;-73
2021/01/04 06:52:23;;;;;;;27.38;13.38;;;0.30;99.90;;;;;;8289627;28;20030;-73
2021/01/04 06:57:08;;;;;;;26.65;14.02;;;0.50;99.90;;;;;;8290650;28;20084;-73
2021/01/04 07:01:46;;;;;;;25.40;12.52;;;0.70;99.90;;;;;;8264112;28;20048;-72
2021/01/04 07:06:24;;;;;;;23.17;12.25;;;0.60;99.90;;;;;;8291513;28;20037;-73
2021/01/04 07:11:04;;;;;;;26.23;12.45;;;0.60;99.90;;;;;;8291708;28;20647;-73
2021/01/04 07:15:23;;;;;;;25.38;12.73;;;0.80;99.90;;;;;;8273547;28;20046;-73
2021/01/04 07:19:57;;;;;;;25.42;12.57;;;0.80;99.90;;;;;;8292154;28;20417;-74
2021/01/04 07:24:26;;;;;;;27.95;14.18;;;0.80;99.90;;;;;;8289664;28;20503;-72
2021/01/04 07:28:58;;;;;;;25.65;13.57;;;0.90;99.90;;;;;;8274321;28;20411;-72
2021/01/04 07:33:33;;;;;;;25.52;13.07;;;0.80;99.90;;;;;;8273152;28;20488;-73
2021/01/04 07:37:50;;;;;;;26.83;13.27;;;0.70;99.90;;;;;;8292119;28;20692;-73
2021/01/04 07:42:19;;;;;;;28.33;14.27;;;0.90;99.90;;;;;;8292575;28;20018;-73
2021/01/04 07:46:42;;;;;;;24.40;12.93;;;0.70;99.90;;;;;;8292054;28;20107;-73
2021/01/04 07:51:09;;;;;;;23.58;12.82;;;0.70;99.90;;;;;;8274590;28;20049;-73
2021/01/04 07:55:29;;;;;;;25.70;13.35;;;0.70;99.90;;;;;;8292239;28;20435;-73
2021/01/04 07:59:45;;;;;;;24.38;12.68;;;0.70;99.90;;;;;;8307282;28;20018;-74
2021/01/04 08:04:02;;;;;;;22.20;12.52;;;0.80;99.90;;;;;;8274553;28;20037;-75
2021/01/04 08:08:42;;;;;;;21.02;11.35;;;0.80;99.90;;;;;;8291542;28;20029;-73
2021/01/04 08:13:15;;;;;;;25.75;11.77;;;0.90;99.90;;;;;;8274351;28;20025;-73
2021/01/04 08:17:38;;;;;;;24.77;12.75;;;1.00;99.90;;;;;;8291402;28;20538;-73
2021/01/04 08:21:48;;;;;;;27.38;14.32;;;1.00;99.90;;;;;;8291674;28;20049;-72
2021/01/04 08:26:11;;;;;;;23.48;13.20;;;0.80;99.90;;;;;;8291820;28;20030;-73
2021/01/04 08:30:33;;;;;;;23.35;12.60;;;0.70;99.90;;;;;;8306630;28;20384;-73
2021/01/04 08:34:42;;;;;;;22.33;12.15;;;0.70;99.90;;;;;;8273518;28;20034;-74
2021/01/04 08:38:43;;;;;;;22.55;12.48;;;0.80;99.90;;;;;;8273820;28;20061;-73
2021/01/04 08:42:44;;;;;;;24.20;10.57;;;0.70;99.90;;;;;;8291636;28;20030;-73
2021/01/04 08:46:46;;;;;;;20.35;10.80;;;0.80;99.90;;;;;;8290925;28;20109;-74
2021/01/04 08:51:10;;;;;;;25.38;12.48;;;0.60;99.90;;;;;;8291383;28;20026;-74
2021/01/04 08:55:32;;;;;;;19.17;9.40;;;0.50;99.90;;;;;;8274158;28;20030;-73
2021/01/04 08:59:34;;;;;;;21.42;11.25;;;0.50;99.90;;;;;;8296939;28;20022;-74
2021/01/04 09:03:36;;;;;;;18.10;8.18;;;0.40;99.90;;;;;;8297471;28;20552;-74
2021/01/04 09:07:51;;;;;;;23.80;13.02;;;0.40;99.90;;;;;;8280261;28;20137;-73
2021/01/04 09:11:58;;;;;;;21.80;12.48;;;0.50;99.90;;;;;;8296999;28;20018;-74
2021/01/04 09:16:23;;;;;;;18.33;9.52;;;0.50;99.90;;;;;;8297160;28;20091;-74
2021/01/04 09:20:43;;;;;;;19.73;11.52;;;0.80;99.90;;;;;;8296778;28;20040;-73
2021/01/04 09:24:43;;;;;;;24.33;13.50;;;0.70;99.90;;;;;;8279257;28;20128;-73
2021/01/04 09:28:48;;;;;;;14.85;8.77;;;0.60;99.90;;;;;;8295883;28;20029;-73
2021/01/04 09:32:48;;;;;;;22.65;12.05;;;0.80;99.90;;;;;;8294915;28;20026;-73
2021/01/04 09:36:54;;;;;;;27.70;13.40;;;0.70;99.90;;;;;;8296319;28;20108;-74
2021/01/04 09:40:58;;;;;;;23.63;12.13;;;0.60;99.90;;;;;;8278320;28;20049;-72
2021/01/04 09:45:14;;;;;;;18.75;8.82;;;0.80;99.90;;;;;;8295838;28;20049;-73
2021/01/04 09:49:36;;;;;;;25.75;13.48;;;0.80;99.90;;;;;;8295905;28;20018;-73
2021/01/04 09:53:39;;;;;;;22.13;12.40;;;0.70;99.90;;;;;;8311245;28;20058;-73
2021/01/04 09:57:45;;;;;;;13.43;7.57;;;0.80;99.90;;;;;;8273463;28;20030;-75
2021/01/04 10:01:49;;;;;;;21.42;10.60;;;0.90;99.90;;;;;;8294807;28;20049;-73
2021/01/04 10:05:50;;;;;;;25.13;11.98;;;0.50;99.90;;;;;;8295619;28;20025;-75
2021/01/04 10:09:52;;;;;;;22.83;10.20;;;0.30;99.90;;;;;;8277254;28;20382;-74
2021/01/04 10:14:04;;;;;;;11.40;6.07;;;0.30;99.90;;;;;;8295141;28;20524;-73
2021/01/04 10:18:30;;;;;;;11.52;4.65;;;0.10;99.90;;;;;;8277135;28;20554;-74
2021/01/04 10:22:39;;;;;;;18.08;9.70;;;0.20;99.90;;;;;;8276055;28;20068;-73
2021/01/04 10:26:41;;;;;;;20.00;9.98;;;0.20;99.90;;;;;;8293358;28;20109;-74
2021/01/04 10:30:42;;;;;;;23.85;12.48;;;0.30;99.90;;;;;;8294622;28;20025;-74
2021/01/04 10:34:45;;;;;;;25.13;13.13;;;0.30;99.90;;;;;;8294686;28;20026;-74
2021/01/04 10:39:00;;;;;;;17.40;9.80;;;0.70;99.90;;;;;;8297272;28;20022;-73
2021/01/04 10:43:07;;;;;;;18.15;9.07;;;0.90;99.90;;;;;;8298120;28;20030;-74
2021/01/04 10:47:24;;;;;;;25.92;12.57;;;0.80;99.90;;;;;;8277732;28;20051;-78
2021/01/04 10:51:25;;;;;;;28.00;13.77;;;0.80;99.90;;;;;;8294252;28;20033;-74
2021/01/04 10:55:27;;;;;;;25.92;14.27;;;1.10;99.90;;;;;;8294858;28;20022;-74
2021/01/04 10:59:38;;;;;;;22.67;11.65;;;1.30;99.90;;;;;;8275457;28;20666;-74
2021/01/04 11:03:57;;;;;;;25.52;13.38;;;1.40;99.90;;;;;;8279567;28;20033;-74
2021/01/04 11:08:12;;;;;;;26.42;13.27;;;1.30;99.90;;;;;;8296894;28;20030;-74
2021/01/04 11:12:21;;;;;;;26.52;13.60;;;1.30;99.90;;;;;;8297673;28;20554;-74
2021/01/04 11:16:21;;;;;;;23.95;13.00;;;1.30;99.90;;;;;;8278991;28;20064;-74
2021/01/04 11:20:22;;;;;;;24.45;13.02;;;1.40;99.90;;;;;;8277466;28;20045;-75
2021/01/04 11:24:22;;;;;;;24.60;13.73;;;1.70;99.90;;;;;;8296796;28;20056;-77
2021/01/04 11:28:23;;;;;;;26.13;14.15;;;1.60;99.90;;;;;;8295034;28;20128;-73
2021/01/04 11:32:24;;;;;;;22.92;12.30;;;1.40;99.90;;;;;;8297933;28;20028;-72
2021/01/04 11:36:24;;;;;;;25.15;12.80;;;1.50;99.90;;;;;;8279716;28;20034;-73
2021/01/04 11:40:26;;;;;;;24.67;12.80;;;1.40;99.90;;;;;;8295673;28;20049;-74
2021/01/04 11:44:29;;;;;;;25.05;13.15;;;1.40;99.90;;;;;;8277878;28;20033;-73
2021/01/04 11:48:30;;;;;;;23.90;12.95;;;1.30;99.90;;;;;;8297654;28;20014;-73
2021/01/04 11:52:30;;;;;;;24.27;12.30;;;1.20;99.90;;;;;;8296344;28;20036;-72
2021/01/04 11:56:31;;;;;;;22.80;12.60;;;1.20;99.90;;;;;;8276412;28;20038;-73
2021/01/04 12:00:32;;;;;;;22.70;12.23;;;1.20;99.90;;;;;;8284726;28;20033;-73
2021/01/04 12:04:33;;;;;;;24.80;12.20;;;1.20;99.90;;;;;;8295430;28;20041;-73
2021/01/04 12:08:33;;;;;;;26.70;14.02;;;1.20;99.90;;;;;;8276694;28;20108;-73
2021/01/04 12:12:34;;;;;;;23.63;13.57;;;1.10;99.90;;;;;;8285112;28;20046;-74
2021/01/04 12:16:36;;;;;;;22.83;12.68;;;1.10;99.90;;;;;;8269611;28;20061;-73
2021/01/04 12:20:37;;;;;;;21.75;10.32;;;1.10;99.90;;;;;;8265293;28;20981;-73
2021/01/04 12:24:47;;;;;;;27.67;14.38;;;1.20;99.90;;;;;;8265108;28;20022;-73
2021/01/04 12:28:48;;;;;;;26.55;14.20;;;1.30;99.90;;;;;;8278329;28;20162;-73
2021/01/04 12:32:49;;;;;;;25.05;13.95;;;1.60;99.90;;;;;;8267031;28;20040;-73
2021/01/04 12:36:50;;;;;;;25.30;13.48;;;1.50;99.90;;;;;;8295844;28;20049;-74
2021/01/04 12:40:50;;;;;;;28.25;14.90;;;1.30;99.90;;;;;;8297682;28;20036;-73
2021/01/04 12:44:51;;;;;;;28.05;15.32;;;1.20;99.90;;;;;;8278265;28;20033;-73
2021/01/04 12:48:51;;;;;;;29.40;14.45;;;1.20;99.90;;;;;;8299951;28;20479;-73
2021/01/04 12:52:52;;;;;;;32.72;16.70;;;1.10;99.90;;;;;;8276965;28;20026;-73
2021/01/04 12:56:55;;;;;;;34.55;17.92;;;1.00;99.90;;;;;;8288426;28;20419;-73
2021/01/04 13:00:56;;;;;;;35.90;18.30;;;1.00;99.90;;;;;;8278986;28;20504;-73
2021/01/04 13:04:57;;;;;;;31.60;16.38;;;1.00;99.90;;;;;;8296031;28;20101;-74
2021/01/04 13:08:57;;;;;;;35.22;17.75;;;1.00;99.90;;;;;;8297174;28;20028;-73
2021/01/04 13:12:58;;;;;;;36.72;17.80;;;1.10;99.90;;;;;;8279703;28;20048;-73
2021/01/04 13:16:59;;;;;;;34.92;17.17;;;1.10;99.90;;;;;;8278001;28;20061;-74
2021/01/04 13:21:00;;;;;;;36.63;19.45;;;1.00;99.90;;;;;;8295705;28;20033;-74
2021/01/04 13:25:00;;;;;;;40.40;18.30;;;0.90;99.90;;;;;;8294838;28;20108;-73
2021/01/04 13:29:01;;;;;;;33.88;18.15;;;0.90;99.90;;;;;;8293536;28;20026;-73
2021/01/04 13:33:01;;;;;;;35.97;18.50;;;0.90;99.90;;;;;;8296001;28;20026;-73
2021/01/04 13:37:04;;;;;;;36.88;18.63;;;1.00;99.90;;;;;;8296363;28;20501;-74
2021/01/04 13:41:05;;;;;;;35.38;17.35;;;0.90;99.90;;;;;;8278148;28;20022;-73
2021/01/04 13:45:06;;;;;;;33.17;17.25;;;1.00;99.90;;;;;;8277371;28;20040;-74
2021/01/04 13:49:07;;;;;;;32.85;16.30;;;0.90;99.90;;;;;;8296052;28;20021;-74
2021/01/04 13:53:07;;;;;;;35.45;17.67;;;0.80;99.90;;;;;;8295342;28;20157;-74
2021/01/04 13:57:08;;;;;;;15.15;7.20;;;0.70;99.90;;;;;;8295869;28;20022;-73
2021/01/04 14:01:08;;;;;;;32.65;15.27;;;0.60;99.90;;;;;;8283567;28;20025;-73
2021/01/04 14:05:10;;;;;;;35.60;17.80;;;0.50;99.90;;;;;;8277603;28;20128;-75
2021/01/04 14:09:13;;;;;;;31.65;16.55;;;0.40;99.90;;;;;;8293952;28;20029;-73
2021/01/04 14:13:13;;;;;;;32.75;16.90;;;0.50;99.90;;;;;;8276942;28;20044;-73
2021/01/04 14:17:15;;;;;;;36.35;16.80;;;0.60;99.90;;;;;;8294076;28;20030;-73
2021/01/04 14:21:18;;;;;;;32.72;16.88;;;0.70;99.90;;;;;;8293698;28;20030;-72
2021/01/04 14:25:18;;;;;;;33.55;17.27;;;0.50;99.90;;;;;;8294003;28;20438;-73
2021/01/04 14:29:19;;;;;;;31.50;16.15;;;0.40;99.90;;;;;;8275928;28;20079;-73
2021/01/04 14:33:19;;;;;;;34.75;16.33;;;0.40;99.90;;;;;;8292702;28;20026;-72
2021/01/04 14:37:21;;;;;;;28.80;14.82;;;0.40;99.90;;;;;;8274685;28;20174;-72
2021/01/04 14:41:21;;;;;;;31.38;14.20;;;0.50;99.90;;;;;;8273793;28;20037;-71
2021/01/04 14:45:22;;;;;;;33.25;16.30;;;0.50;99.90;;;;;;8291550;28;20061;-72
2021/01/04 14:49:23;;;;;;;30.42;12.70;;;0.40;99.90;;;;;;8275853;28;20164;-71
2021/01/04 14:53:24;;;;;;;32.92;15.13;;;0.20;99.90;;;;;;8292349;28;20026;-72
2021/01/04 14:57:24;;;;;;;35.20;15.55;;;0.00;99.90;;;;;;8275005;28;20092;-72
2021/01/04 15:01:25;;;;;;;36.72;16.48;;;0.00;99.90;;;;;;8274838;28;20154;-72
2021/01/04 15:05:25;;;;;;;34.03;16.02;;;0.00;99.90;;;;;;8291192;28;20487;-72
2021/01/04 15:09:26;;;;;;;33.15;15.50;;;0.00;99.90;;;;;;8292672;28;20057;-72
2021/01/04 15:13:27;;;;;;;31.67;16.02;;;0.10;99.90;;;;;;8292580;28;20047;-72
2021/01/04 15:17:27;;;;;;;34.05;15.60;;;0.10;99.90;;;;;;8292781;28;20113;-73
2021/01/04 15:21:28;;;;;;;31.10;14.60;;;0.20;99.90;;;;;;8274915;28;20021;-72
2021/01/04 15:25:28;;;;;;;29.35;14.80;;;0.20;99.90;;;;;;8315767;28;20037;-72
2021/01/04 15:29:29;;;;;;;33.10;15.10;;;0.20;99.90;;;;;;8296936;28;20459;-72
2021/01/04 15:33:30;;;;;;;29.83;14.23;;;0.10;99.90;;;;;;8292644;28;20030;-72
2021/01/04 15:37:31;;;;;;;34.20;14.82;;;0.00;99.90;;;;;;8290863;28;20028;-72
2021/01/04 15:41:32;;;;;;;21.58;9.57;;;-0.20;99.90;;;;;;8273804;28;20014;-71
2021/01/04 15:45:32;;;;;;;36.88;16.00;;;-0.30;99.90;;;;;;8291498;28;20033;-72
2021/01/04 15:49:33;;;;;;;45.55;19.55;;;-0.30;99.90;;;;;;8273640;28;20117;-71
2021/01/04 15:53:33;;;;;;;44.78;19.60;;;-0.10;99.90;;;;;;8274353;28;20504;-71
2021/01/04 15:57:34;;;;;;;29.70;14.30;;;-0.20;99.90;;;;;;8273791;28;20487;-71
2021/01/04 16:01:39;;;;;;;34.05;15.93;;;-0.10;99.90;;;;;;8271572;28;20121;-72
2021/01/04 16:05:40;;;;;;;36.80;16.70;;;0.10;99.90;;;;;;8272955;28;20451;-71
2021/01/04 16:09:42;;;;;;;37.33;15.52;;;0.00;99.90;;;;;;8272996;28;20105;-71
2021/01/04 16:13:43;;;;;;;43.20;19.67;;;0.00;99.90;;;;;;8290191;28;20034;-71
2021/01/04 16:17:45;;;;;;;35.75;16.35;;;0.00;99.90;;;;;;8273522;28;20029;-71
2021/01/04 16:21:46;;;;;;;22.15;9.25;;;-0.10;99.90;;;;;;8272856;28;20071;-72
2021/01/04 16:25:46;;;;;;;37.15;17.15;;;0.10;99.90;;;;;;8273899;28;20022;-71
2021/01/04 16:29:47;;;;;;;35.97;17.13;;;0.20;99.90;;;;;;8273532;28;20040;-72
2021/01/04 16:33:48;;;;;;;41.60;18.33;;;0.10;99.90;;;;;;8290159;28;20045;-71
2021/01/04 16:37:51;;;;;;;43.85;17.70;;;0.10;99.90;;;;;;8291670;28;20041;-72
2021/01/04 16:42:00;;;;;;;39.65;18.10;;;0.20;99.90;;;;;;8290973;28;20627;-72
2021/01/04 16:46:00;;;;;;;42.92;17.50;;;0.30;99.90;;;;;;8290986;28;20806;-72
2021/01/04 16:50:01;;;;;;;43.92;18.48;;;0.10;99.90;;;;;;8290045;28;20022;-66
2021/01/04 16:54:02;;;;;;;39.75;16.25;;;0.20;99.90;;;;;;8290273;28;20073;-70
2021/01/04 16:58:02;;;;;;;43.80;18.80;;;0.20;99.90;;;;;;8281688;28;20057;-70
2021/01/04 17:02:03;;;;;;;39.53;16.55;;;0.10;99.90;;;;;;8261001;28;20113;-70
2021/01/04 17:06:04;;;;;;;38.60;16.48;;;0.10;99.90;;;;;;8262105;28;20026;-70
2021/01/04 17:10:05;;;;;;;37.50;16.95;;;0.20;99.90;;;;;;8278510;28;20030;-70
2021/01/04 17:14:06;;;;;;;40.45;17.85;;;0.10;99.90;;;;;;8260700;28;20034;-70
2021/01/04 17:18:07;;;;;;;35.33;14.60;;;0.10;99.90;;;;;;8294494;28;20516;-70
2021/01/04 17:22:10;;;;;;;38.72;17.92;;;0.00;99.90;;;;;;8302006;28;20037;-70
2021/01/04 17:26:10;;;;;;;43.53;18.52;;;-0.30;99.90;;;;;;8269309;28;20064;-70
2021/01/04 17:30:12;;;;;;;30.42;12.13;;;-0.40;99.90;;;;;;8268971;28;20817;-70
2021/01/04 17:34:13;;;;;;;44.90;19.23;;;-0.40;99.90;;;;;;8284061;28;20030;-70
2021/01/04 17:38:14;;;;;;;34.20;14.63;;;-0.60;99.90;;;;;;8266197;28;20084;-70
2021/01/04 17:42:19;;;;;;;108.78;39.95;;;-0.60;99.90;;;;;;8267472;28;20034;-70
2021/01/04 17:46:29;;;;;;;52.10;24.63;;;-0.50;99.90;;;;;;8276006;28;20679;-70
2021/01/04 17:50:29;;;;;;;103.93;43.10;;;-0.40;99.90;;;;;;8263655;28;20026;-70
2021/01/04 17:54:30;;;;;;;53.42;21.95;;;-0.30;99.90;;;;;;8263238;28;20030;-71
2021/01/04 17:58:30;;;;;;;53.35;21.83;;;-0.20;99.90;;;;;;8280213;28;20061;-70
2021/01/04 18:02:31;;;;;;;42.78;20.80;;;-0.30;99.90;;;;;;8280974;28;20030;-70
2021/01/04 18:06:32;;;;;;;56.00;24.45;;;-0.40;99.90;;;;;;8280334;28;20034;-71
2021/01/04 18:10:32;;;;;;;46.55;21.95;;;-0.50;99.90;;;;;;8281131;28;20056;-70
2021/01/04 18:14:33;;;;;;;63.72;28.88;;;-0.40;99.90;;;;;;8263917;28;20121;-70
2021/01/04 18:18:33;;;;;;;60.22;25.35;;;-0.30;99.90;;;;;;8263445;28;20026;-70
2021/01/04 18:22:34;;;;;;;59.25;26.17;;;-0.40;99.90;;;;;;8281711;28;20705;-71
2021/01/04 18:26:35;;;;;;;52.90;22.10;;;-0.40;99.90;;;;;;8279871;28;20079;-70
2021/01/04 18:30:36;;;;;;;46.38;20.88;;;-0.30;99.90;;;;;;8280215;28;20030;-71
2021/01/04 18:34:38;;;;;;;47.30;20.40;;;-0.30;99.90;;;;;;8280449;28;20030;-70
2021/01/04 18:38:38;;;;;;;41.45;18.15;;;-0.40;99.90;;;;;;8282471;28;20034;-70
2021/01/04 18:42:39;;;;;;;46.17;19.33;;;-0.40;99.90;;;;;;8286683;28;20050;-74
2021/01/04 18:46:40;;;;;;;34.65;15.18;;;-0.50;99.90;;;;;;8270795;28;20074;-71
2021/01/04 18:50:44;;;;;;;45.88;19.60;;;-0.50;99.90;;;;;;8295784;28;20026;-72
2021/01/04 18:54:44;;;;;;;43.97;17.90;;;-0.60;99.90;;;;;;8269076;28;20046;-71
2021/01/04 18:58:45;;;;;;;45.65;19.08;;;-0.70;99.90;;;;;;8285464;28;20029;-73
2021/01/04 19:02:45;;;;;;;45.40;20.65;;;-0.60;99.90;;;;;;8286470;28;20057;-72
2021/01/04 19:06:46;;;;;;;48.42;18.67;;;-0.50;99.90;;;;;;8265638;28;20034;-69
2021/01/04 19:10:47;;;;;;;21.27;7.80;;;-0.40;99.90;;;;;;8269474;28;20405;-71
2021/01/04 19:14:48;;;;;;;50.70;20.10;;;-0.50;99.90;;;;;;8281594;28;20112;-74
2021/01/04 19:18:49;;;;;;;39.80;16.70;;;-0.70;99.90;;;;;;8294441;28;20396;-74
2021/01/04 19:22:49;;;;;;;46.30;19.35;;;-0.60;99.90;;;;;;8260158;28;20033;-75
2021/01/04 19:26:50;;;;;;;45.70;19.38;;;-0.50;99.90;;;;;;8278912;28;20069;-74
2021/01/04 19:30:55;;;;;;;44.78;20.00;;;-0.40;99.90;;;;;;8267536;28;20168;-73
2021/01/04 19:34:57;;;;;;;22.27;11.52;;;-0.50;99.90;;;;;;8264621;28;20080;-75
2021/01/04 19:38:58;;;;;;;49.72;20.25;;;-0.50;99.90;;;;;;8269427;28;20030;-72
2021/01/04 19:42:58;;;;;;;46.05;18.65;;;-0.60;99.90;;;;;;8270672;28;20539;-75
2021/01/04 19:47:01;;;;;;;47.17;19.10;;;-0.50;99.90;;;;;;8263363;28;20022;-76
2021/01/04 19:51:02;;;;;;;22.65;10.27;;;-0.50;99.90;;;;;;8288665;28;20713;-70
2021/01/04 19:55:04;;;;;;;49.70;19.30;;;-0.60;99.90;;;;;;8275388;28;20038;-72
2021/01/04 19:59:05;;;;;;;55.80;21.23;;;-0.60;99.90;;;;;;8280353;28;20036;-69
2021/01/04 20:03:06;;;;;;;51.47;19.80;;;-0.60;99.90;;;;;;8280226;28;20034;-70
2021/01/04 20:07:07;;;;;;;49.15;21.02;;;-0.40;99.90;;;;;;8257704;28;20079;-70
2021/01/04 20:11:08;;;;;;;41.50;16.52;;;-0.50;99.90;;;;;;8277201;28;20034;-69
2021/01/04 20:15:09;;;;;;;51.03;19.88;;;-0.50;99.90;;;;;;8263403;28;20065;-69
2021/01/04 20:19:12;;;;;;;35.22;15.43;;;-0.50;99.90;;;;;;8262225;28;20060;-69
2021/01/04 20:23:14;;;;;;;32.50;13.25;;;-0.50;99.90;;;;;;8276395;28;20030;-69
2021/01/04 20:27:14;;;;;;;29.73;12.77;;;-0.60;99.90;;;;;;8258605;28;20034;-70
2021/01/04 20:31:15;;;;;;;34.60;12.98;;;-0.50;99.90;;;;;;8275486;28;20567;-69
2021/01/04 20:35:15;;;;;;;18.20;7.78;;;-0.50;99.90;;;;;;8274893;28;20127;-70
2021/01/04 20:39:16;;;;;;;31.73;11.05;;;-0.40;99.90;;;;;;8277675;28;20513;-69
2021/01/04 20:43:17;;;;;;;32.72;13.52;;;-0.60;99.90;;;;;;8277147;28;20088;-70
2021/01/04 20:47:17;;;;;;;31.08;12.68;;;-0.70;99.90;;;;;;8278945;28;20037;-69
2021/01/04 20:51:19;;;;;;;31.67;13.02;;;-0.70;99.90;;;;;;8282059;28;20034;-71
2021/01/04 20:55:19;;;;;;;30.05;12.40;;;-0.60;99.90;;;;;;8286960;28;20040;-70
2021/01/04 20:59:20;;;;;;;31.17;13.05;;;-0.70;99.90;;;;;;8287197;28;20034;-70
2021/01/04 21:03:21;;;;;;;35.35;14.30;;;-0.60;99.90;;;;;;8287785;28;20034;-70
2021/01/04 21:07:22;;;;;;;33.55;13.65;;;-0.50;99.90;;;;;;8267056;28;20046;-70
2021/01/04 21:11:23;;;;;;;34.63;13.88;;;-0.50;99.90;;;;;;8271880;28;20084;-70